createdAt,value
2019-02-23T00:01:33.042Z,102808.84
2019-02-23T00:04:02.169Z,102812.90
2019-02-23T00:06:30.537Z,102813.70
2019-02-23T00:08:59.133Z,102820.95
2019-02-23T00:11:27.440Z,102826.27
2019-02-23T00:13:55.460Z,102824.64
2019-02-23T00:16:23.464Z,102816.37
2019-02-23T00:18:53.631Z,102821.80
2019-02-23T00:21:22.252Z,102815.03
2019-02-23T00:23:50.854Z,102822.41
2019-02-23T00:26:18.792Z,102817.06
2019-02-23T00:28:47.574Z,102810.08
2019-02-23T00:31:16.476Z,102816.17
2019-02-23T00:33:45.151Z,102819.20
2019-02-23T00:36:13.440Z,102820.58
2019-02-23T00:38:41.409Z,102825.36
2019-02-23T00:41:09.322Z,102820.16
2019-02-23T00:43:37.226Z,102825.77
2019-02-23T00:46:05.211Z,102834.39
2019-02-23T00:48:33.665Z,102828.62
2019-02-23T00:51:02.355Z,102822.51
2019-02-23T00:53:31.018Z,102822.55
2019-02-23T00:55:59.069Z,102835.70
2019-02-23T00:58:27.280Z,102832.87
2019-02-23T01:00:56.520Z,102830.13
2019-02-23T01:03:24.869Z,102841.30
2019-02-23T01:05:53.129Z,102841.06
2019-02-23T01:08:21.931Z,102844.02
2019-02-23T01:10:57.838Z,102840.81
2019-02-23T01:13:20.661Z,102835.28
2019-02-23T01:15:49.217Z,102838.53
2019-02-23T01:18:17.607Z,102835.92
2019-02-23T01:20:46.096Z,102841.30
2019-02-23T01:23:14.310Z,102850.53
2019-02-23T01:25:42.192Z,102835.91
2019-02-23T01:28:10.819Z,102835.20
2019-02-23T01:30:39.213Z,102839.26
2019-02-23T01:33:07.839Z,102842.28
2019-02-23T01:35:35.772Z,102839.41
2019-02-23T01:38:04.448Z,102835.70
2019-02-23T01:40:32.448Z,102837.20
2019-02-23T01:43:00.453Z,102836.99
2019-02-23T01:45:28.432Z,102843.65
2019-02-23T01:47:56.971Z,102846.78
2019-02-23T01:50:25.447Z,102852.52
2019-02-23T01:52:53.428Z,102853.44
2019-02-23T01:55:21.886Z,102850.77
2019-02-23T01:57:50.085Z,102852.63
2019-02-23T02:00:19.121Z,102850.81
2019-02-23T02:02:48.130Z,102855.23
2019-02-23T02:05:16.403Z,102856.23
2019-02-23T02:07:44.665Z,102861.00
2019-02-23T02:10:13.567Z,102858.33
2019-02-23T02:12:42.479Z,102851.56
2019-02-23T02:15:13.163Z,102855.87
2019-02-23T02:17:41.765Z,102851.20
2019-02-23T02:20:11.338Z,102858.56
2019-02-23T02:22:39.781Z,102864.55
2019-02-23T02:25:08.317Z,102857.80
2019-02-23T02:27:36.967Z,102854.45
2019-02-23T02:30:14.065Z,102853.45
2019-02-23T02:32:42.129Z,102854.47
2019-02-23T02:35:10.718Z,102848.34
2019-02-23T02:37:38.767Z,102841.11
2019-02-23T02:40:07.868Z,102852.64
2019-02-23T02:42:36.725Z,102857.61
2019-02-23T02:45:06.345Z,102866.34
2019-02-23T02:47:34.451Z,102862.20
2019-02-23T02:50:02.987Z,102863.92
2019-02-23T02:52:30.929Z,102862.84
2019-02-23T02:54:59.703Z,102858.69
2019-02-23T02:57:28.028Z,102861.39
2019-02-23T02:59:56.687Z,102865.84
2019-02-23T03:02:24.724Z,102859.59
2019-02-23T03:04:53.472Z,102863.64
2019-02-23T03:07:22.787Z,102876.01
2019-02-23T03:09:50.810Z,102868.53
2019-02-23T03:12:19.611Z,102858.67
2019-02-23T03:14:47.675Z,102853.63
2019-02-23T03:17:16.082Z,102856.80
2019-02-23T03:19:44.153Z,102844.63
2019-02-23T03:22:15.954Z,102837.19
2019-02-23T03:24:44.547Z,102841.27
2019-02-23T03:27:13.185Z,102842.04
2019-02-23T03:29:41.460Z,102838.27
2019-02-23T03:32:12.359Z,102839.35
2019-02-23T03:34:40.760Z,102836.44
2019-02-23T03:37:09.480Z,102839.00
2019-02-23T03:39:38.354Z,102838.32
2019-02-23T03:42:06.640Z,102838.19
2019-02-23T03:44:34.612Z,102834.38
2019-02-23T03:47:02.918Z,102827.03
2019-02-23T03:49:31.143Z,102829.14
2019-02-23T03:51:59.148Z,102830.98
2019-02-23T03:54:27.758Z,102810.74
2019-02-23T03:56:57.328Z,102810.86
2019-02-23T03:59:25.779Z,102811.59
2019-02-23T04:01:54.347Z,102813.79
2019-02-23T04:04:22.777Z,102802.87
2019-02-23T04:06:51.431Z,102822.01
2019-02-23T04:09:19.403Z,102821.75
2019-02-23T04:11:48.078Z,102827.50
2019-02-23T04:14:16.852Z,102828.02
2019-02-23T04:16:45.212Z,102831.53
2019-02-23T04:19:13.489Z,102830.91
2019-02-23T04:21:41.966Z,102825.14
2019-02-23T04:24:10.301Z,102819.06
2019-02-23T04:26:38.226Z,102828.22
2019-02-23T04:29:06.384Z,102824.94
2019-02-23T04:31:34.766Z,102827.75
2019-02-23T04:34:03.302Z,102821.11
2019-02-23T04:36:32.279Z,102823.98
2019-02-23T04:39:00.538Z,102828.69
2019-02-23T04:41:29.244Z,102826.98
2019-02-23T04:43:57.589Z,102831.14
2019-02-23T04:46:25.590Z,102839.70
2019-02-23T04:48:53.584Z,102837.28
2019-02-23T04:51:21.846Z,102837.75
2019-02-23T04:53:49.762Z,102839.46
2019-02-23T04:56:18.086Z,102832.95
2019-02-23T04:58:46.257Z,102835.27
2019-02-23T05:01:14.880Z,102832.45
2019-02-23T05:03:43.294Z,102830.23
2019-02-23T05:06:11.392Z,102835.38
2019-02-23T05:08:39.732Z,102829.98
2019-02-23T05:11:08.044Z,102837.93
2019-02-23T05:13:38.500Z,102838.69
2019-02-23T05:16:10.018Z,102847.85
2019-02-23T05:18:38.662Z,102842.80
2019-02-23T05:21:07.155Z,102847.97
2019-02-23T05:23:36.444Z,102850.39
2019-02-23T05:26:04.641Z,102838.52
2019-02-23T05:28:32.989Z,102842.25
2019-02-23T05:31:01.325Z,102842.04
2019-02-23T05:33:29.562Z,102848.89
2019-02-23T05:35:57.605Z,102842.74
2019-02-23T05:38:25.383Z,102838.06
2019-02-23T05:40:53.953Z,102842.61
2019-02-23T05:43:22.094Z,102839.63
2019-02-23T05:45:53.057Z,102841.34
2019-02-23T05:48:21.306Z,102842.70
2019-02-23T05:50:49.547Z,102840.08
2019-02-23T05:53:17.816Z,102846.27
2019-02-23T05:55:45.816Z,102845.02
2019-02-23T05:58:14.412Z,102834.66
2019-02-23T06:00:53.021Z,102840.66
2019-02-23T06:03:22.107Z,102837.51
2019-02-23T06:05:51.984Z,102841.41
2019-02-23T06:08:22.338Z,102844.17
2019-02-23T06:10:52.215Z,102852.20
2019-02-23T06:13:21.849Z,102848.41
2019-02-23T06:15:50.879Z,102848.91
2019-02-23T06:18:19.126Z,102849.14
2019-02-23T06:20:50.868Z,102854.72
2019-02-23T06:23:19.052Z,102854.46
2019-02-23T06:26:03.869Z,102851.31
2019-02-23T06:28:31.499Z,102856.98
2019-02-23T06:30:59.142Z,102857.91
2019-02-23T06:33:27.432Z,102859.91
2019-02-23T06:35:55.359Z,102852.84
2019-02-23T06:38:23.148Z,102847.64
2019-02-23T06:40:50.576Z,102862.00
2019-02-23T06:43:18.706Z,102864.37
2019-02-23T06:45:48.203Z,102874.03
2019-02-23T06:48:16.199Z,102869.73
2019-02-23T06:50:43.898Z,102883.06
2019-02-23T06:53:11.597Z,102894.94
2019-02-23T06:55:39.633Z,102898.70
2019-02-23T06:58:08.016Z,102899.61
2019-02-23T07:00:35.988Z,102898.19
2019-02-23T07:03:07.791Z,102913.00
2019-02-23T07:05:34.963Z,102911.45
2019-02-23T07:08:02.173Z,102917.95
2019-02-23T07:10:29.815Z,102920.68
2019-02-23T07:12:57.367Z,102926.23
2019-02-23T07:15:24.979Z,102932.27
2019-02-23T07:17:52.485Z,102930.84
2019-02-23T07:20:21.946Z,102932.36
2019-02-23T07:22:49.080Z,102930.47
2019-02-23T07:25:16.777Z,102934.31
2019-02-23T07:27:45.105Z,102934.59
2019-02-23T07:30:12.663Z,102936.45
2019-02-23T07:32:40.998Z,102951.45
2019-02-23T07:35:08.986Z,102954.73
2019-02-23T07:37:36.712Z,102953.56
2019-02-23T07:40:04.718Z,102951.52
2019-02-23T07:42:32.764Z,102945.05
2019-02-23T07:45:00.325Z,102953.13
2019-02-23T07:47:28.069Z,102951.31
2019-02-23T07:49:56.296Z,102949.81
2019-02-23T07:52:26.627Z,102944.49
2019-02-23T07:54:53.727Z,102946.17
2019-02-23T07:57:21.668Z,102945.76
2019-02-23T07:59:49.214Z,102937.08
2019-02-23T08:02:16.810Z,102932.06
2019-02-23T08:04:44.086Z,102939.36
2019-02-23T08:07:11.858Z,102937.76
2019-02-23T08:09:39.398Z,102939.11
2019-02-23T08:12:07.187Z,102932.75
2019-02-23T08:14:34.704Z,102931.70
2019-02-23T08:17:02.557Z,102939.45
2019-02-23T08:19:30.287Z,102926.31
2019-02-23T08:21:57.976Z,102922.63
2019-02-23T08:24:25.256Z,102922.05
2019-02-23T08:26:52.865Z,102915.45
2019-02-23T08:29:20.390Z,102917.63
2019-02-23T08:31:47.692Z,102912.23
2019-02-23T08:34:15.497Z,102906.08
2019-02-23T08:36:42.815Z,102892.95
2019-02-23T08:39:10.100Z,102885.88
2019-02-23T08:41:38.279Z,102891.45
2019-02-23T08:44:05.980Z,102892.71
2019-02-23T08:46:33.774Z,102906.11
2019-02-23T08:49:01.199Z,102904.56
2019-02-23T08:51:28.321Z,102908.63
2019-02-23T08:53:55.760Z,102906.79
2019-02-23T08:56:23.698Z,102913.48
2019-02-23T08:58:51.102Z,102910.58
2019-02-23T09:01:18.828Z,102903.11
2019-02-23T09:03:46.592Z,102897.75
2019-02-23T09:06:14.154Z,102903.56
2019-02-23T09:08:41.569Z,102912.88
2019-02-23T09:11:09.215Z,102906.50
2019-02-23T09:13:36.623Z,102907.07
2019-02-23T09:16:04.163Z,102910.77
2019-02-23T09:18:31.765Z,102913.38
2019-02-23T09:20:59.637Z,102908.44
2019-02-23T09:23:27.711Z,102911.80
2019-02-23T09:25:57.813Z,102929.00
2019-02-23T09:28:25.400Z,102921.03
2019-02-23T09:30:52.706Z,102922.61
2019-02-23T09:33:20.369Z,102924.48
2019-02-23T09:35:47.660Z,102912.31
2019-02-23T09:38:14.788Z,102916.67
2019-02-23T09:40:42.708Z,102907.17
2019-02-23T09:43:10.565Z,102912.66
2019-02-23T09:45:37.805Z,102906.39
2019-02-23T09:48:05.403Z,102912.58
2019-02-23T09:50:32.651Z,102909.34
2019-02-23T09:53:10.450Z,102900.13
2019-02-23T09:55:30.259Z,102896.00
2019-02-23T09:57:58.054Z,102899.20
2019-02-23T10:00:25.977Z,102897.66
2019-02-23T10:02:53.533Z,102890.87
2019-02-23T10:05:20.810Z,102887.95
2019-02-23T10:07:48.238Z,102875.50
2019-02-23T10:10:16.232Z,102874.17
2019-02-23T10:12:43.744Z,102874.66
2019-02-23T10:15:12.810Z,102875.75
2019-02-23T10:17:40.076Z,102868.00
2019-02-23T10:20:08.074Z,102863.58
2019-02-23T10:22:35.658Z,102853.25
2019-02-23T10:25:03.503Z,102840.73
2019-02-23T10:27:30.730Z,102840.40
2019-02-23T10:29:58.673Z,102840.66
2019-02-23T10:32:26.641Z,102842.02
2019-02-23T10:34:54.647Z,102837.80
2019-02-23T10:37:22.480Z,102840.23
2019-02-23T10:39:49.983Z,102845.25
2019-02-23T10:42:17.923Z,102851.95
2019-02-23T10:44:46.406Z,102842.02
2019-02-23T10:47:14.732Z,102858.42
2019-02-23T10:49:42.127Z,102868.73
2019-02-23T10:52:09.899Z,102873.45
2019-02-23T10:54:37.683Z,102878.39
2019-02-23T10:57:05.193Z,102885.75
2019-02-23T10:59:32.930Z,102887.40
2019-02-23T11:02:01.149Z,102889.30
2019-02-23T11:04:33.056Z,102872.29
2019-02-23T11:07:01.481Z,102864.89
2019-02-23T11:09:35.080Z,102873.17
2019-02-23T11:12:05.124Z,102875.19
2019-02-23T11:14:32.528Z,102861.91
2019-02-23T11:17:00.531Z,102864.66
2019-02-23T11:19:28.822Z,102871.98
2019-02-23T11:21:56.593Z,102874.44
2019-02-23T11:24:24.167Z,102868.26
2019-02-23T11:26:52.247Z,102863.45
2019-02-23T11:29:20.901Z,102866.83
2019-02-23T11:31:48.741Z,102863.66
2019-02-23T11:34:16.469Z,102857.27
2019-02-23T11:36:43.835Z,102862.34
2019-02-23T11:39:11.649Z,102848.59
2019-02-23T11:41:39.326Z,102847.52
2019-02-23T11:44:07.064Z,102843.23
2019-02-23T11:46:34.872Z,102842.52
2019-02-23T11:49:02.171Z,102830.61
2019-02-23T11:51:29.547Z,102827.69
2019-02-23T11:53:57.155Z,102827.86
2019-02-23T11:56:24.674Z,102833.77
2019-02-23T11:58:52.166Z,102834.12
2019-02-23T12:01:19.638Z,102825.61
2019-02-23T12:03:47.257Z,102817.08
2019-02-23T12:06:14.792Z,102819.25
2019-02-23T12:08:42.437Z,102805.61
2019-02-23T12:11:10.471Z,102804.34
2019-02-23T12:13:37.941Z,102805.61
2019-02-23T12:16:05.761Z,102805.38
2019-02-23T12:18:33.353Z,102805.38
2019-02-23T12:21:01.459Z,102796.93
2019-02-23T12:23:29.328Z,102788.09
2019-02-23T12:25:57.439Z,102785.59
2019-02-23T12:28:24.985Z,102771.64
2019-02-23T12:30:52.640Z,102781.94
2019-02-23T12:33:19.840Z,102778.87
2019-02-23T12:35:47.332Z,102779.61
2019-02-23T12:38:17.802Z,102772.81
2019-02-23T12:40:45.464Z,102759.87
2019-02-23T12:43:12.587Z,102764.83
2019-02-23T12:45:40.035Z,102750.97
2019-02-23T12:48:07.392Z,102752.61
2019-02-23T12:50:34.669Z,102745.50
2019-02-23T12:53:02.254Z,102739.00
2019-02-23T12:55:29.833Z,102731.72
2019-02-23T12:57:57.722Z,102730.19
2019-02-23T13:00:25.139Z,102733.67
2019-02-23T13:02:52.434Z,102734.07
2019-02-23T13:05:20.258Z,102725.84
2019-02-23T13:07:48.652Z,102712.64
2019-02-23T13:10:16.265Z,102710.50
2019-02-23T13:13:48.126Z,102710.88
2019-02-23T13:17:00.893Z,102707.16
2019-02-23T13:20:11.976Z,102711.11
2019-02-23T13:23:22.882Z,102716.69
2019-02-23T13:26:49.248Z,102710.77
2019-02-23T13:30:09.035Z,102714.09
2019-02-23T13:33:28.453Z,102709.70
2019-02-23T13:37:15.235Z,102708.55
2019-02-23T13:41:09.181Z,102703.32
2019-02-23T13:44:22.956Z,102702.29
2019-02-23T13:47:34.369Z,102695.81
2019-02-23T13:50:43.703Z,102697.85
2019-02-23T13:54:06.011Z,102694.27
2019-02-23T13:57:11.931Z,102684.13
2019-02-23T14:00:16.332Z,102680.44
2019-02-23T14:03:45.578Z,102688.66
2019-02-23T14:06:52.404Z,102685.33
2019-02-23T14:10:17.806Z,102683.64
2019-02-23T14:13:35.968Z,102683.83
2019-02-23T14:16:52.522Z,102680.83
2019-02-23T14:19:58.295Z,102674.77
2019-02-23T14:23:17.198Z,102679.09
2019-02-23T14:26:18.377Z,102675.98
2019-02-23T14:29:53.444Z,102664.03
2019-02-23T14:33:08.080Z,102668.38
2019-02-23T14:36:21.649Z,102665.41
2019-02-23T14:39:40.686Z,102670.47
2019-02-23T14:42:59.826Z,102676.53
2019-02-23T14:46:09.970Z,102671.20
2019-02-23T14:49:23.783Z,102664.36
2019-02-23T14:52:54.473Z,102669.12
2019-02-23T14:55:46.113Z,102666.69
2019-02-23T14:58:49.872Z,102659.08
2019-02-23T15:02:14.554Z,102659.73
2019-02-23T15:05:25.078Z,102656.36
2019-02-23T15:08:39.430Z,102663.70
2019-02-23T15:12:01.312Z,102667.15
2019-02-23T15:15:03.298Z,102656.77
2019-02-23T15:18:39.744Z,102654.01
2019-02-23T15:21:24.674Z,102651.88
2019-02-23T15:25:12.779Z,102652.98
2019-02-23T15:28:47.967Z,102657.16
2019-02-23T15:32:24.136Z,102652.36
2019-02-23T15:35:25.654Z,102653.23
2019-02-23T15:38:16.363Z,102655.92
2019-02-23T15:41:05.356Z,102656.22
2019-02-23T15:44:05.723Z,102660.00
2019-02-23T15:47:16.743Z,102648.61
2019-02-23T15:49:43.907Z,102652.33
2019-02-23T15:52:11.348Z,102650.02
2019-02-23T15:54:39.081Z,102648.52
2019-02-23T15:57:06.638Z,102655.53
2019-02-23T15:59:37.610Z,102652.83
2019-02-23T16:02:05.519Z,102659.47
2019-02-23T16:04:33.198Z,102655.95
2019-02-23T16:07:01.506Z,102658.69
2019-02-23T16:09:29.586Z,102664.53
2019-02-23T16:11:57.008Z,102663.66
2019-02-23T16:14:24.704Z,102665.23
2019-02-23T16:16:52.333Z,102666.60
2019-02-23T16:19:20.246Z,102666.25
2019-02-23T16:21:48.222Z,102665.22
2019-02-23T16:24:16.058Z,102670.86
2019-02-23T16:26:44.137Z,102673.90
2019-02-23T16:29:11.802Z,102677.45
2019-02-23T16:31:39.658Z,102680.89
2019-02-23T16:34:09.136Z,102682.22
2019-02-23T16:36:36.632Z,102679.98
2019-02-23T16:39:09.867Z,102681.48
2019-02-23T16:41:37.860Z,102680.46
2019-02-23T16:44:05.865Z,102684.19
2019-02-23T16:46:34.419Z,102691.45
2019-02-23T16:49:02.504Z,102693.50
2019-02-23T16:51:30.333Z,102689.88
2019-02-23T16:53:58.504Z,102690.35
2019-02-23T16:56:25.885Z,102689.33
2019-02-23T16:58:54.186Z,102693.69
2019-02-23T17:01:21.774Z,102698.55
2019-02-23T17:03:49.735Z,102702.80
2019-02-23T17:06:17.767Z,102700.12
2019-02-23T17:08:45.377Z,102697.06
2019-02-23T17:11:12.801Z,102704.88
2019-02-23T17:13:40.103Z,102703.30
2019-02-23T17:16:07.353Z,102702.30
2019-02-23T17:18:35.905Z,102702.92
2019-02-23T17:21:03.551Z,102704.56
2019-02-23T17:23:31.184Z,102704.45
2019-02-23T17:26:04.134Z,102698.05
2019-02-23T17:28:28.984Z,102710.73
2019-02-23T17:30:56.816Z,102717.31
2019-02-23T17:33:27.791Z,102719.73
2019-02-23T17:35:53.878Z,102728.50
2019-02-23T17:38:21.556Z,102719.41
2019-02-23T17:40:49.417Z,102720.02
2019-02-23T17:43:16.715Z,102725.63
2019-02-23T17:45:45.104Z,102724.08
2019-02-23T17:48:13.069Z,102725.33
2019-02-23T17:50:40.317Z,102734.33
2019-02-23T17:53:08.506Z,102736.47
2019-02-23T17:55:36.115Z,102737.92
2019-02-23T17:58:03.489Z,102742.13
2019-02-23T18:00:30.848Z,102745.59
2019-02-23T18:02:58.435Z,102748.23
2019-02-23T18:05:26.619Z,102740.44
2019-02-23T18:07:54.443Z,102751.45
2019-02-23T18:10:22.237Z,102734.65
2019-02-23T18:12:53.249Z,102742.31
2019-02-23T18:15:26.319Z,102740.38
2019-02-23T18:17:54.092Z,102739.95
2019-02-23T18:20:22.148Z,102727.62
2019-02-23T18:22:51.026Z,102734.33
2019-02-23T18:25:21.450Z,102743.01
2019-02-23T18:27:59.136Z,102742.34
2019-02-23T18:30:31.267Z,102742.73
2019-02-23T18:33:01.694Z,102747.22
2019-02-23T18:35:29.300Z,102753.70
2019-02-23T18:37:57.177Z,102751.28
2019-02-23T18:40:25.911Z,102750.20
2019-02-23T18:42:54.041Z,102750.84
2019-02-23T18:45:21.561Z,102748.14
2019-02-23T18:47:49.078Z,102753.88
2019-02-23T18:50:22.149Z,102755.95
2019-02-23T18:52:49.703Z,102752.88
2019-02-23T18:55:20.782Z,102759.65
2019-02-23T18:57:48.537Z,102753.98
2019-02-23T19:00:24.001Z,102756.89
2019-02-23T19:02:45.188Z,102750.58
2019-02-23T19:05:12.645Z,102757.74
2019-02-23T19:07:40.025Z,102752.73
2019-02-23T19:10:09.915Z,102752.59
2019-02-23T19:12:37.704Z,102747.70
2019-02-23T19:15:07.040Z,102741.58
2019-02-23T19:17:34.182Z,102737.42
2019-02-23T19:20:01.595Z,102736.88
2019-02-23T19:22:29.269Z,102728.19
2019-02-23T19:24:56.825Z,102731.20
2019-02-23T19:27:24.492Z,102727.27
2019-02-23T19:29:52.237Z,102727.47
2019-02-23T19:32:19.831Z,102725.63
2019-02-23T19:34:47.240Z,102726.27
2019-02-23T19:37:14.665Z,102725.27
2019-02-23T19:39:42.246Z,102717.75
2019-02-23T19:42:10.055Z,102712.69
2019-02-23T19:44:37.496Z,102713.98
2019-02-23T19:47:15.813Z,102716.20
2019-02-23T19:49:43.215Z,102713.81
2019-02-23T19:52:13.153Z,102707.77
2019-02-23T19:54:40.817Z,102701.62
2019-02-23T19:57:08.249Z,102702.66
2019-02-23T19:59:35.810Z,102712.86
2019-02-23T20:02:03.636Z,102715.06
2019-02-23T20:04:31.515Z,102710.73
2019-02-23T20:06:59.398Z,102710.02
2019-02-23T20:09:27.381Z,102707.94
2019-02-23T20:11:55.040Z,102713.56
2019-02-23T20:14:22.890Z,102707.36
2019-02-23T20:16:50.480Z,102700.16
2019-02-23T20:19:19.697Z,102705.32
2019-02-23T20:21:47.673Z,102708.07
2019-02-23T20:24:15.544Z,102702.59
2019-02-23T20:26:43.373Z,102705.78
2019-02-23T20:29:11.649Z,102703.00
2019-02-23T20:31:39.220Z,102713.75
2019-02-23T20:34:06.767Z,102711.52
2019-02-23T20:36:34.741Z,102705.81
2019-02-23T20:39:03.054Z,102700.46
2019-02-23T20:41:30.957Z,102705.52
2019-02-23T20:43:59.079Z,102705.46
2019-02-23T20:46:26.624Z,102699.55
2019-02-23T20:48:53.815Z,102704.67
2019-02-23T20:51:21.774Z,102699.41
2019-02-23T20:53:49.736Z,102705.50
2019-02-23T20:56:17.198Z,102698.95
2019-02-23T20:58:44.324Z,102705.70
2019-02-23T21:01:12.462Z,102701.14
2019-02-23T21:03:40.464Z,102701.39
2019-02-23T21:06:07.729Z,102699.62
2019-02-23T21:08:35.918Z,102705.75
2019-02-23T21:11:03.514Z,102706.86
2019-02-23T21:13:31.224Z,102715.95
2019-02-23T21:15:58.529Z,102712.81
2019-02-23T21:18:26.130Z,102716.52
2019-02-23T21:20:53.269Z,102717.24
2019-02-23T21:23:21.376Z,102716.02
2019-02-23T21:25:48.901Z,102721.42
2019-02-23T21:28:16.264Z,102722.27
2019-02-23T21:30:43.636Z,102727.23
2019-02-23T21:33:11.213Z,102733.00
2019-02-23T21:35:38.919Z,102736.28
2019-02-23T21:38:06.561Z,102733.22
2019-02-23T21:40:33.722Z,102738.12
2019-02-23T21:43:01.255Z,102736.19
2019-02-23T21:45:30.198Z,102733.58
2019-02-23T21:47:57.814Z,102733.85
2019-02-23T21:50:25.302Z,102732.54
2019-02-23T21:52:52.623Z,102729.45
2019-02-23T21:55:20.422Z,102729.18
2019-02-23T21:57:47.619Z,102728.72
2019-02-23T22:00:15.118Z,102733.12
2019-02-23T22:02:42.841Z,102729.08
2019-02-23T22:05:12.680Z,102734.38
2019-02-23T22:07:40.345Z,102735.85
2019-02-23T22:10:08.181Z,102743.08
2019-02-23T22:12:35.845Z,102739.39
2019-02-23T22:15:03.560Z,102745.27
2019-02-23T22:17:30.984Z,102740.88
2019-02-23T22:19:58.593Z,102739.63
2019-02-23T22:22:26.922Z,102742.94
2019-02-23T22:24:54.154Z,102743.90
2019-02-23T22:27:31.160Z,102740.00
2019-02-23T22:29:54.105Z,102739.27
2019-02-23T22:32:21.345Z,102743.91
2019-02-23T22:34:48.477Z,102743.90
2019-02-23T22:37:15.984Z,102746.72
2019-02-23T22:39:43.219Z,102745.13
2019-02-23T22:42:10.514Z,102746.97
2019-02-23T22:44:38.158Z,102747.09
2019-02-23T22:47:05.817Z,102748.92
2019-02-23T22:49:33.175Z,102752.58
2019-02-23T22:52:01.430Z,102755.27
2019-02-23T22:54:28.895Z,102752.44
2019-02-23T22:56:56.062Z,102752.41
2019-02-23T22:59:23.670Z,102755.11
2019-02-23T23:01:51.446Z,102760.88
2019-02-23T23:04:19.013Z,102763.19
2019-02-23T23:06:46.631Z,102757.20
2019-02-23T23:09:17.456Z,102750.83
2019-02-23T23:11:45.230Z,102756.78
2019-02-23T23:14:13.121Z,102753.21
2019-02-23T23:16:40.904Z,102750.86
2019-02-23T23:19:08.637Z,102754.16
2019-02-23T23:21:36.160Z,102750.49
2019-02-23T23:24:03.537Z,102759.42
2019-02-23T23:26:31.167Z,102757.20
2019-02-23T23:28:58.777Z,102752.77
2019-02-23T23:31:26.626Z,102744.30
2019-02-23T23:33:54.888Z,102746.64
2019-02-23T23:36:22.503Z,102750.31
2019-02-23T23:38:50.207Z,102745.81
2019-02-23T23:41:18.525Z,102749.31
2019-02-23T23:43:46.984Z,102746.22
2019-02-23T23:46:14.642Z,102744.87
2019-02-23T23:48:42.479Z,102750.19
2019-02-23T23:51:09.755Z,102751.81
2019-02-23T23:53:37.694Z,102758.94
2019-02-23T23:56:04.991Z,102752.09
2019-02-23T23:58:33.248Z,102751.09
